Airport ID:KRTS
Update Time (UTC):22/07/2018 04:48
Wind Speed (Knots):2
Wind Direction (Magnetic):10
Temperature (°C):20
Dew Point (°C):16
Humidity (%):75
Altimeter (inHg):30.21
Density Altitude (Feet):6700
Visibility (Miles):10+
Clouds (Hundreds of feet):FEW110
Present Weather:
METAR:METAR KRTS 220445Z AUTO 00000KT 10SM CLR 20/16 A3021 RMK AO2

The data displayed is for advisory purposes only and is not to be used for flight planning or operations.

This page is not automatically refreshed. Reload the page to see current data.